createdAt,value
2022-10-22T00:00:11.508Z,12.32
2022-10-22T00:02:38.453Z,7.65
2022-10-22T00:05:05.705Z,7.68
2022-10-22T00:07:32.638Z,9.55
2022-10-22T00:09:59.342Z,10.38
2022-10-22T00:12:26.317Z,6.18
2022-10-22T00:14:52.984Z,9.25
2022-10-22T00:17:19.773Z,9.93
2022-10-22T00:19:46.498Z,5.80
2022-10-22T00:22:13.206Z,6.22
2022-10-22T00:24:40.677Z,7.88
2022-10-22T00:27:10.036Z,14.10
2022-10-22T00:29:36.787Z,15.00
2022-10-22T00:32:04.612Z,12.95
2022-10-22T00:34:32.410Z,6.57
2022-10-22T00:36:59.129Z,7.10
2022-10-22T00:39:26.849Z,9.73
2022-10-22T00:41:55.843Z,9.10
2022-10-22T00:45:00.104Z,10.15
2022-10-22T00:47:31.443Z,15.00
2022-10-22T00:49:59.741Z,9.38
2022-10-22T00:52:26.948Z,10.93
2022-10-22T00:54:53.644Z,10.48
2022-10-22T00:57:21.130Z,13.88
2022-10-22T00:59:48.592Z,10.50
2022-10-22T01:02:16.070Z,9.20
2022-10-22T01:04:43.188Z,7.00
2022-10-22T01:07:21.845Z,11.30
2022-10-22T01:10:37.857Z,10.70
2022-10-22T01:13:26.710Z,10.77
2022-10-22T01:16:12.784Z,15.25
2022-10-22T01:19:01.596Z,12.27
2022-10-22T01:21:43.925Z,9.13
2022-10-22T01:24:41.808Z,10.48
2022-10-22T01:27:36.741Z,15.57
2022-10-22T01:30:07.701Z,7.60
2022-10-22T01:32:41.799Z,12.65
2022-10-22T01:35:11.685Z,6.95
2022-10-22T01:37:55.594Z,10.65
2022-10-22T01:40:23.218Z,10.18
2022-10-22T01:43:01.492Z,7.30
2022-10-22T01:45:42.469Z,8.23
2022-10-22T01:48:16.737Z,8.57
2022-10-22T01:50:59.555Z,7.05
2022-10-22T01:53:41.723Z,7.70
2022-10-22T01:56:28.194Z,10.80
2022-10-22T01:59:03.857Z,9.52
2022-10-22T02:01:34.652Z,8.02
2022-10-22T02:04:33.726Z,8.15
2022-10-22T02:07:04.956Z,15.60
2022-10-22T02:09:33.337Z,7.85
2022-10-22T02:12:03.016Z,9.85
2022-10-22T02:14:31.500Z,13.93
2022-10-22T02:16:59.693Z,7.25
2022-10-22T02:19:46.363Z,8.20
2022-10-22T02:22:13.631Z,13.00
2022-10-22T02:24:40.448Z,6.85
2022-10-22T02:27:25.851Z,13.05
2022-10-22T02:30:06.100Z,9.15
2022-10-22T02:32:56.863Z,7.53
2022-10-22T02:35:26.125Z,11.25
2022-10-22T02:37:54.634Z,10.82
2022-10-22T02:40:22.093Z,13.05
2022-10-22T02:42:50.497Z,14.25
2022-10-22T02:45:18.561Z,8.27
2022-10-22T02:47:45.303Z,9.73
2022-10-22T02:50:11.992Z,10.10
2022-10-22T02:52:39.394Z,10.18
2022-10-22T02:55:06.679Z,8.85
2022-10-22T02:57:33.605Z,7.88
2022-10-22T03:00:00.348Z,9.65
2022-10-22T03:02:27.014Z,8.48
2022-10-22T03:04:53.689Z,7.97
2022-10-22T03:07:20.372Z,11.95
2022-10-22T03:09:47.034Z,13.27
2022-10-22T03:12:13.674Z,11.05
2022-10-22T03:14:40.334Z,13.13
2022-10-22T03:17:07.052Z,11.68
2022-10-22T03:19:33.799Z,9.20
2022-10-22T03:22:11.631Z,9.45
2022-10-22T03:24:42.390Z,8.13
2022-10-22T03:27:10.785Z,11.80
2022-10-22T03:29:39.645Z,11.63
2022-10-22T03:32:06.847Z,7.40
2022-10-22T03:34:33.636Z,8.95
2022-10-22T03:37:02.017Z,13.45
2022-10-22T03:39:31.940Z,10.75
2022-10-22T03:41:58.861Z,12.07
2022-10-22T03:44:26.401Z,10.15
2022-10-22T03:46:54.319Z,11.48
2022-10-22T03:49:23.195Z,8.85
2022-10-22T03:51:49.892Z,8.27
2022-10-22T03:54:16.674Z,8.30
2022-10-22T03:56:43.372Z,13.45
2022-10-22T03:59:10.040Z,8.50
2022-10-22T04:01:36.842Z,9.85
2022-10-22T04:04:03.688Z,9.25
2022-10-22T04:06:30.780Z,10.20
2022-10-22T04:08:57.872Z,6.80
2022-10-22T04:11:24.621Z,11.15
2022-10-22T04:13:51.305Z,8.80
2022-10-22T04:16:21.010Z,10.20
2022-10-22T04:18:49.270Z,8.10
2022-10-22T04:21:18.775Z,10.10
2022-10-22T04:23:48.026Z,10.50
2022-10-22T04:26:15.388Z,10.32
2022-10-22T04:28:42.729Z,9.73
2022-10-22T04:31:11.563Z,14.20
2022-10-22T04:33:39.047Z,7.72
2022-10-22T04:36:11.614Z,7.55
2022-10-22T04:38:39.372Z,8.38
2022-10-22T04:41:25.177Z,10.02
2022-10-22T04:43:54.090Z,8.90
2022-10-22T04:46:20.927Z,9.07
2022-10-22T04:48:48.044Z,8.63
2022-10-22T04:51:18.307Z,7.72
2022-10-22T04:53:45.588Z,11.27
2022-10-22T04:56:20.551Z,8.35
2022-10-22T04:59:03.790Z,9.05
2022-10-22T05:01:43.213Z,16.33
2022-10-22T05:04:16.264Z,13.98
2022-10-22T05:06:43.876Z,10.40
2022-10-22T05:09:16.724Z,10.50
2022-10-22T05:11:46.293Z,11.50
2022-10-22T05:14:13.415Z,10.75
2022-10-22T05:16:40.170Z,6.65
2022-10-22T05:19:07.663Z,11.30
2022-10-22T05:21:34.488Z,9.95
2022-10-22T05:24:01.329Z,7.35
2022-10-22T05:26:28.963Z,11.38
2022-10-22T05:28:55.842Z,11.20
2022-10-22T05:31:22.640Z,16.73
2022-10-22T05:33:49.554Z,6.70
2022-10-22T05:36:20.220Z,15.25
2022-10-22T05:38:46.947Z,10.90
2022-10-22T05:41:16.463Z,8.85
2022-10-22T05:43:43.400Z,11.90
2022-10-22T05:46:12.736Z,9.48
2022-10-22T05:48:39.514Z,11.40
2022-10-22T05:51:11.624Z,15.48
2022-10-22T05:53:41.698Z,7.68
2022-10-22T05:56:12.812Z,11.48
2022-10-22T05:58:40.166Z,10.43
2022-10-22T06:01:11.701Z,11.35
2022-10-22T06:03:38.367Z,9.98
2022-10-22T06:06:34.791Z,9.15
2022-10-22T06:09:26.359Z,8.10
2022-10-22T06:11:53.474Z,9.60
2022-10-22T06:14:21.293Z,9.60
2022-10-22T06:16:48.767Z,7.53
2022-10-22T06:19:18.321Z,9.85
2022-10-22T06:21:45.827Z,13.80
2022-10-22T06:24:13.072Z,9.73
2022-10-22T06:26:40.208Z,11.07
2022-10-22T06:29:06.921Z,11.25
2022-10-22T06:31:36.963Z,11.32
2022-10-22T06:34:10.317Z,11.40
2022-10-22T06:36:37.474Z,11.00
2022-10-22T06:39:05.032Z,10.20
2022-10-22T06:41:31.956Z,9.65
2022-10-22T06:43:58.709Z,9.55
2022-10-22T06:46:26.790Z,7.03
2022-10-22T06:48:56.358Z,9.48
2022-10-22T06:51:23.362Z,10.83
2022-10-22T06:53:50.140Z,10.93
2022-10-22T06:56:19.553Z,10.63
2022-10-22T06:58:50.297Z,8.30
2022-10-22T07:01:19.016Z,9.02
2022-10-22T07:03:45.801Z,12.23
2022-10-22T07:06:14.348Z,12.40
2022-10-22T07:08:42.038Z,10.27
2022-10-22T07:11:15.121Z,8.23
2022-10-22T07:13:42.623Z,9.98
2022-10-22T07:16:09.674Z,11.27
2022-10-22T07:18:38.111Z,10.80
2022-10-22T07:21:06.696Z,7.35
2022-10-22T07:23:33.547Z,9.05
2022-10-22T07:26:02.460Z,7.85
2022-10-22T07:28:30.586Z,9.85
2022-10-22T07:30:57.284Z,15.25
2022-10-22T07:33:23.984Z,9.73
2022-10-22T07:35:50.752Z,14.65
2022-10-22T07:38:17.428Z,8.30
2022-10-22T07:40:44.128Z,9.77
2022-10-22T07:43:10.784Z,10.93
2022-10-22T07:45:37.467Z,11.07
2022-10-22T07:48:04.752Z,14.73
2022-10-22T07:50:31.502Z,10.85
2022-10-22T07:52:58.547Z,8.52
2022-10-22T07:55:25.794Z,9.48
2022-10-22T07:57:53.150Z,11.10
2022-10-22T08:00:23.066Z,17.48
2022-10-22T08:02:52.190Z,9.07
2022-10-22T08:05:19.131Z,8.73
2022-10-22T08:07:45.878Z,10.00
2022-10-22T08:10:12.972Z,13.48
2022-10-22T08:12:40.803Z,8.30
2022-10-22T08:15:08.626Z,9.90
2022-10-22T08:17:35.862Z,11.68
2022-10-22T08:20:02.703Z,8.32
2022-10-22T08:22:29.434Z,14.00
2022-10-22T08:24:56.112Z,12.63
2022-10-22T08:27:22.823Z,12.50
2022-10-22T08:29:49.669Z,10.10
2022-10-22T08:32:16.453Z,14.45
2022-10-22T08:34:43.156Z,10.30
2022-10-22T08:37:14.166Z,9.38
2022-10-22T08:39:41.419Z,13.25
2022-10-22T08:42:45.097Z,8.10
2022-10-22T08:45:34.348Z,12.43
2022-10-22T08:48:14.539Z,11.23
2022-10-22T08:50:46.737Z,11.57
2022-10-22T08:53:17.845Z,10.10
2022-10-22T08:55:45.624Z,12.32
2022-10-22T08:58:26.054Z,12.07
2022-10-22T09:01:00.307Z,6.60
2022-10-22T09:03:46.461Z,11.23
2022-10-22T09:06:21.975Z,12.00
2022-10-22T09:08:49.092Z,11.30
2022-10-22T09:11:21.401Z,17.90
2022-10-22T09:13:49.025Z,12.75
2022-10-22T09:16:38.564Z,14.95
2022-10-22T09:19:36.201Z,12.27
2022-10-22T09:22:17.552Z,11.68
2022-10-22T09:25:05.826Z,9.80
2022-10-22T09:27:32.569Z,10.48
2022-10-22T09:30:01.460Z,15.20
2022-10-22T09:32:28.937Z,11.52
2022-10-22T09:34:57.637Z,9.43
2022-10-22T09:37:29.476Z,10.63
2022-10-22T09:39:58.926Z,11.57
2022-10-22T09:42:25.762Z,9.00
2022-10-22T09:44:58.245Z,14.30
2022-10-22T09:48:00.478Z,10.63
2022-10-22T09:50:42.706Z,8.75
2022-10-22T09:53:48.329Z,11.30
2022-10-22T09:56:35.509Z,13.13
2022-10-22T09:59:02.963Z,9.27
2022-10-22T10:01:33.153Z,9.68
2022-10-22T11:26:15.501Z,12.45
2022-10-22T11:28:49.972Z,10.20
2022-10-22T11:31:18.340Z,12.23
2022-10-22T11:33:50.784Z,12.40
2022-10-22T11:36:22.015Z,12.02
2022-10-22T11:38:49.194Z,16.83
2022-10-22T11:41:23.785Z,7.38
2022-10-22T11:44:10.501Z,13.05
2022-10-22T11:46:44.190Z,11.77
2022-10-22T11:49:13.842Z,11.65
2022-10-22T11:51:42.683Z,13.25
2022-10-22T11:54:34.048Z,13.05
2022-10-22T11:57:37.469Z,14.70
2022-10-22T12:00:31.639Z,10.43
2022-10-22T12:03:23.996Z,9.15
2022-10-22T12:06:26.483Z,11.32
2022-10-22T12:08:53.259Z,9.85
2022-10-22T12:11:27.540Z,13.52
2022-10-22T12:14:32.334Z,14.63
2022-10-22T12:17:05.712Z,8.55
2022-10-22T12:19:37.769Z,11.02
2022-10-22T12:22:16.758Z,12.15
2022-10-22T12:24:47.079Z,10.93
2022-10-22T12:30:00.628Z,13.38
2022-10-22T12:32:36.118Z,13.07
2022-10-22T12:35:16.814Z,15.57
2022-10-22T12:37:43.966Z,14.10
2022-10-22T12:40:24.315Z,12.45
2022-10-22T12:43:18.080Z,13.75
2022-10-22T12:45:47.671Z,10.60
2022-10-22T12:48:21.955Z,10.98
2022-10-22T12:50:58.308Z,12.13
2022-10-22T12:53:39.863Z,11.18
2022-10-22T12:56:12.960Z,12.45
2022-10-22T12:59:02.718Z,13.38
2022-10-22T13:01:34.690Z,15.90
2022-10-22T13:04:20.695Z,12.32
2022-10-22T13:06:49.654Z,13.20
2022-10-22T13:09:25.203Z,10.57
2022-10-22T13:12:04.602Z,15.07
2022-10-22T13:14:34.225Z,16.80
2022-10-22T13:17:19.930Z,14.20
2022-10-22T13:19:52.476Z,13.68
2022-10-22T13:22:56.015Z,18.23
2022-10-22T13:25:33.822Z,17.05
2022-10-22T13:28:19.526Z,12.25
2022-10-22T13:31:09.340Z,16.45
2022-10-22T13:33:41.349Z,13.73
2022-10-22T13:36:14.513Z,14.23
2022-10-22T13:38:42.099Z,14.23
2022-10-22T13:41:30.885Z,17.55
2022-10-22T13:43:58.348Z,12.77
2022-10-22T13:46:26.521Z,16.80
2022-10-22T13:48:55.651Z,11.18
2022-10-22T13:51:34.846Z,17.67
2022-10-22T13:54:03.486Z,14.55
2022-10-22T13:56:30.170Z,12.55
2022-10-22T13:58:56.828Z,14.93
2022-10-22T14:01:26.819Z,12.88
2022-10-22T14:03:57.919Z,14.25
2022-10-22T14:06:28.616Z,13.35
2022-10-22T14:09:02.757Z,16.48
2022-10-22T14:11:31.252Z,17.67
2022-10-22T14:13:58.192Z,12.13
2022-10-22T14:16:28.076Z,10.43
2022-10-22T14:18:56.192Z,19.92
2022-10-22T14:21:23.128Z,11.70
2022-10-22T14:23:51.608Z,15.13
2022-10-22T14:26:28.064Z,11.05
2022-10-22T14:29:11.402Z,10.95
2022-10-22T14:31:42.085Z,12.25
2022-10-22T14:34:11.854Z,12.85
2022-10-22T14:36:38.712Z,11.73
2022-10-22T14:39:05.502Z,14.35
2022-10-22T14:41:32.348Z,12.30
2022-10-22T14:43:59.867Z,18.58
2022-10-22T14:46:26.708Z,13.55
2022-10-22T14:48:53.416Z,14.43
2022-10-22T14:51:21.407Z,16.90
2022-10-22T14:53:48.771Z,16.98
2022-10-22T14:56:18.132Z,12.57
2022-10-22T14:58:45.678Z,15.87
2022-10-22T15:01:13.134Z,17.10
2022-10-22T15:03:39.947Z,12.88
2022-10-22T15:06:07.253Z,14.82
2022-10-22T15:08:34.416Z,8.60
2022-10-22T15:11:03.808Z,14.73
2022-10-22T15:13:30.759Z,12.87
2022-10-22T15:15:58.622Z,17.70
2022-10-22T15:18:26.166Z,14.45
2022-10-22T15:20:58.013Z,12.35
2022-10-22T15:23:24.918Z,11.57
2022-10-22T15:25:51.588Z,14.75
2022-10-22T15:28:18.413Z,11.90
2022-10-22T15:30:45.187Z,8.35
2022-10-22T15:33:11.931Z,16.58
2022-10-22T15:35:38.602Z,14.48
2022-10-22T15:38:09.149Z,12.02
2022-10-22T15:40:35.900Z,12.30
2022-10-22T15:43:02.582Z,15.45
2022-10-22T15:45:29.567Z,11.77
2022-10-22T15:47:56.243Z,14.48
2022-10-22T15:50:22.929Z,11.82
2022-10-22T15:52:49.628Z,14.32
2022-10-22T15:55:16.873Z,14.63
2022-10-22T15:57:44.048Z,16.25
2022-10-22T16:00:12.557Z,9.55
2022-10-22T16:02:39.572Z,11.00
2022-10-22T16:05:06.789Z,9.88
2022-10-22T16:07:33.521Z,11.68
2022-10-22T16:10:01.543Z,13.90
2022-10-22T16:12:28.367Z,11.88
2022-10-22T16:14:55.106Z,11.00
2022-10-22T16:17:21.786Z,11.48
2022-10-22T16:19:49.241Z,10.43
2022-10-22T16:22:15.972Z,16.30
2022-10-22T16:24:43.200Z,13.18
2022-10-22T16:27:10.518Z,12.55
2022-10-22T16:29:39.044Z,15.63
2022-10-22T16:32:06.038Z,11.25
2022-10-22T16:34:32.917Z,13.57
2022-10-22T16:36:59.654Z,11.38
2022-10-22T16:39:26.351Z,14.35
2022-10-22T16:41:53.092Z,12.30
2022-10-22T16:44:19.748Z,17.15
2022-10-22T16:46:46.439Z,15.05
2022-10-22T16:49:13.122Z,16.88
2022-10-22T16:51:39.868Z,13.73
2022-10-22T16:54:09.716Z,13.55
2022-10-22T16:56:38.951Z,16.48
2022-10-22T16:59:06.567Z,18.10
2022-10-22T17:01:37.862Z,18.42
2022-10-22T17:04:04.779Z,19.40
2022-10-22T17:06:31.482Z,12.40
2022-10-22T17:08:58.300Z,12.07
2022-10-22T17:11:25.323Z,18.05
2022-10-22T17:13:54.387Z,14.07
2022-10-22T17:16:23.777Z,18.25
2022-10-22T17:18:50.656Z,15.95
2022-10-22T17:21:18.639Z,11.98
2022-10-22T17:23:46.505Z,18.85
2022-10-22T17:26:22.728Z,12.80
2022-10-22T17:28:50.201Z,16.63
2022-10-22T17:31:23.113Z,16.52
2022-10-22T17:33:51.592Z,14.65
2022-10-22T17:36:19.429Z,13.93
2022-10-22T17:38:50.450Z,14.80
2022-10-22T17:41:19.985Z,17.42
2022-10-22T17:43:47.680Z,23.40
2022-10-22T17:46:23.154Z,17.00
2022-10-22T17:49:02.227Z,19.90
2022-10-22T17:51:30.321Z,17.38
2022-10-22T17:53:57.096Z,22.55
2022-10-22T17:56:29.900Z,14.07
2022-10-22T17:58:56.811Z,15.15
2022-10-22T18:01:34.610Z,12.50
2022-10-22T18:04:03.734Z,18.73
2022-10-22T18:06:31.164Z,12.95
2022-10-22T18:08:57.951Z,16.27
2022-10-22T18:11:27.109Z,15.48
2022-10-22T18:13:56.325Z,15.60
2022-10-22T18:16:23.430Z,12.65
2022-10-22T18:18:53.082Z,15.10
2022-10-22T18:21:20.581Z,16.17
2022-10-22T18:23:47.741Z,21.92
2022-10-22T18:26:15.696Z,22.10
2022-10-22T18:28:42.492Z,17.48
2022-10-22T18:31:12.575Z,19.85
2022-10-22T18:33:40.209Z,14.75
2022-10-22T18:36:09.871Z,19.05
2022-10-22T18:38:38.210Z,15.63
2022-10-22T18:41:09.660Z,17.70
2022-10-22T18:43:36.961Z,19.73
2022-10-22T18:46:06.820Z,22.10
2022-10-22T18:48:35.368Z,25.73
2022-10-22T18:51:07.682Z,23.38
2022-10-22T18:53:35.387Z,21.67
2022-10-22T18:56:05.559Z,16.75
2022-10-22T18:58:36.638Z,21.08
2022-10-22T19:01:11.568Z,22.02
2022-10-22T19:03:38.342Z,21.60
2022-10-22T19:06:05.205Z,18.33
2022-10-22T19:08:32.727Z,15.63
2022-10-22T19:10:59.684Z,15.70
2022-10-22T19:13:26.613Z,13.27
2022-10-22T19:15:53.292Z,17.58
2022-10-22T19:18:20.483Z,19.90
2022-10-22T19:20:48.848Z,14.30
2022-10-22T19:23:19.890Z,15.63
2022-10-22T19:25:47.512Z,19.95
2022-10-22T19:28:14.222Z,21.83
2022-10-22T19:30:44.614Z,15.20
2022-10-22T19:35:37.971Z,21.10
2022-10-22T19:38:04.650Z,22.25
2022-10-22T19:40:31.407Z,20.45
2022-10-22T19:42:58.080Z,19.50
2022-10-22T19:45:24.733Z,19.52
2022-10-22T19:47:51.403Z,19.92
2022-10-22T19:50:18.218Z,18.55
2022-10-22T19:52:45.083Z,14.13
2022-10-22T19:55:11.830Z,18.75
2022-10-22T19:57:38.887Z,15.98
2022-10-22T20:00:06.506Z,20.17
2022-10-22T20:02:33.159Z,17.90
2022-10-22T20:04:59.852Z,21.92
2022-10-22T20:07:29.024Z,17.23
2022-10-22T20:09:55.744Z,18.20
2022-10-22T20:12:22.413Z,18.02
2022-10-22T20:14:49.236Z,18.20
2022-10-22T20:17:15.903Z,19.20
2022-10-22T20:19:42.685Z,25.55
2022-10-22T20:22:09.400Z,21.25
2022-10-22T20:24:36.065Z,23.95
2022-10-22T20:27:02.793Z,20.88
2022-10-22T20:29:29.561Z,25.30
2022-10-22T20:31:56.328Z,24.23
2022-10-22T20:34:23.018Z,22.48
2022-10-22T20:36:49.769Z,18.95
2022-10-22T20:39:16.835Z,18.80
2022-10-22T20:41:43.639Z,14.68
2022-10-22T20:44:14.688Z,14.45
2022-10-22T20:46:41.695Z,16.92
2022-10-22T20:49:13.250Z,15.30
2022-10-22T20:51:40.165Z,18.67
2022-10-22T20:54:08.034Z,16.48
2022-10-22T20:56:36.396Z,14.80
2022-10-22T20:59:08.291Z,18.65
2022-10-22T21:01:40.532Z,18.75
2022-10-22T21:04:08.039Z,15.88
2022-10-22T21:06:37.958Z,14.98
2022-10-22T21:09:08.934Z,19.10
2022-10-22T21:11:37.172Z,22.52
2022-10-22T21:14:05.620Z,19.63
2022-10-22T21:16:32.437Z,19.25
2022-10-22T21:18:59.487Z,19.17
2022-10-22T21:21:26.323Z,18.55
2022-10-22T21:23:53.217Z,20.10
2022-10-22T21:26:20.614Z,15.45
2022-10-22T21:28:47.574Z,16.65
2022-10-22T21:31:21.529Z,18.85
2022-10-22T21:33:49.919Z,16.42
2022-10-22T21:36:21.635Z,15.95
2022-10-22T21:38:51.027Z,18.85
2022-10-22T21:41:19.767Z,19.17
2022-10-22T21:43:46.681Z,13.70
2022-10-22T21:46:21.768Z,17.15
2022-10-22T21:48:56.880Z,17.52
2022-10-22T21:51:25.465Z,12.85
2022-10-22T21:56:27.463Z,16.25
2022-10-22T21:58:54.817Z,19.08
2022-10-22T22:01:22.303Z,16.17
2022-10-22T22:03:50.612Z,14.07
2022-10-22T22:06:21.308Z,17.38
2022-10-22T22:08:49.945Z,15.27
2022-10-22T22:11:19.073Z,18.73
2022-10-22T22:13:46.098Z,16.85
2022-10-22T22:16:15.718Z,14.68
2022-10-22T22:18:42.541Z,17.13
2022-10-22T22:21:12.168Z,16.10
2022-10-22T22:23:41.486Z,16.98
2022-10-22T22:26:09.463Z,16.65
2022-10-22T22:28:36.370Z,15.85
2022-10-22T22:31:31.947Z,15.77
2022-10-22T22:34:12.288Z,16.20
2022-10-22T22:36:41.659Z,16.10
2022-10-22T22:39:12.015Z,18.83
2022-10-22T22:44:05.838Z,16.27
2022-10-22T22:46:32.759Z,12.60
2022-10-22T22:48:59.643Z,14.80
2022-10-22T22:51:26.589Z,19.77
2022-10-22T22:53:53.468Z,13.18
2022-10-22T22:56:25.397Z,16.52
2022-10-22T22:58:52.463Z,15.52
2022-10-22T23:01:22.207Z,15.93
2022-10-22T23:03:53.948Z,17.13
2022-10-22T23:06:20.814Z,16.30
2022-10-22T23:08:50.196Z,15.52
2022-10-22T23:11:17.066Z,14.27
2022-10-22T23:13:44.926Z,14.45
2022-10-22T23:16:19.885Z,16.30
2022-10-22T23:18:47.934Z,13.07
2022-10-22T23:21:20.509Z,18.05
2022-10-22T23:23:50.445Z,13.98
2022-10-22T23:26:27.226Z,17.10
2022-10-22T23:28:54.386Z,16.42
2022-10-22T23:31:21.776Z,16.25
2022-10-22T23:33:48.865Z,12.95
2022-10-22T23:36:15.747Z,13.15
2022-10-22T23:38:42.531Z,14.65
2022-10-22T23:41:09.915Z,12.15
2022-10-22T23:43:37.813Z,16.02
2022-10-22T23:46:06.326Z,13.23
2022-10-22T23:48:33.228Z,14.88
2022-10-22T23:51:11.491Z,13.80
2022-10-22T23:53:38.144Z,14.15
2022-10-22T23:56:11.624Z,19.95
2022-10-22T23:58:38.425Z,12.93
